createdAt,value
2022-08-07T00:00:13.704Z,4.40
2022-08-07T00:02:44.255Z,5.77
2022-08-07T00:05:13.590Z,5.03
2022-08-07T00:07:42.950Z,4.07
2022-08-07T00:10:26.838Z,3.73
2022-08-07T00:13:00.001Z,5.80
2022-08-07T00:15:37.982Z,4.80
2022-08-07T00:18:19.926Z,4.13
2022-08-07T00:20:54.274Z,5.80
2022-08-07T00:23:23.551Z,4.53
2022-08-07T00:26:00.053Z,5.23
2022-08-07T00:28:34.147Z,6.50
2022-08-07T00:31:06.043Z,5.00
2022-08-07T00:33:36.574Z,9.90
2022-08-07T00:36:08.234Z,5.33
2022-08-07T00:38:39.033Z,5.47
2022-08-07T00:41:14.682Z,2.87
2022-08-07T00:44:01.960Z,5.33
2022-08-07T00:46:32.950Z,3.40
2022-08-07T00:49:03.467Z,6.40
2022-08-07T00:51:58.150Z,4.27
2022-08-07T00:54:22.973Z,9.80
2022-08-07T00:56:53.897Z,5.53
2022-08-07T00:59:32.480Z,3.07
2022-08-07T01:02:08.904Z,4.37
2022-08-07T01:04:43.886Z,6.10
2022-08-07T01:07:13.812Z,4.57
2022-08-07T01:10:05.959Z,3.37
2022-08-07T01:12:34.478Z,4.33
2022-08-07T01:15:04.589Z,6.13
2022-08-07T01:17:35.328Z,3.30
2022-08-07T01:20:09.218Z,3.43
2022-08-07T01:22:46.468Z,6.90
2022-08-07T01:25:54.756Z,5.67
2022-08-07T01:28:12.571Z,3.47
2022-08-07T01:30:42.950Z,4.47
2022-08-07T01:33:15.571Z,3.53
2022-08-07T01:35:53.239Z,3.67
2022-08-07T01:38:29.244Z,4.53
2022-08-07T01:41:07.120Z,5.43
2022-08-07T01:43:40.455Z,4.43
2022-08-07T01:46:12.354Z,4.33
2022-08-07T01:48:46.688Z,3.20
2022-08-07T01:52:03.815Z,3.50
2022-08-07T01:54:33.354Z,6.73
2022-08-07T01:57:20.452Z,6.43
2022-08-07T01:59:58.687Z,3.57
2022-08-07T02:03:11.626Z,5.37
2022-08-07T02:05:48.281Z,3.07
2022-08-07T02:08:28.134Z,5.93
2022-08-07T02:11:03.347Z,3.17
2022-08-07T02:13:57.495Z,5.20
2022-08-07T02:16:32.867Z,3.87
2022-08-07T02:19:05.339Z,3.97
2022-08-07T02:21:56.476Z,6.90
2022-08-07T02:24:29.451Z,5.80
2022-08-07T02:27:02.632Z,5.43
2022-08-07T02:29:36.823Z,5.17
2022-08-07T02:32:23.437Z,4.67
2022-08-07T02:34:57.944Z,6.23
2022-08-07T02:37:35.931Z,3.73
2022-08-07T02:40:30.124Z,4.10
2022-08-07T02:43:07.908Z,4.13
2022-08-07T02:46:00.971Z,7.80
2022-08-07T02:48:32.148Z,3.20
2022-08-07T02:51:28.859Z,4.60
2022-08-07T02:53:59.460Z,4.07
2022-08-07T02:56:31.657Z,4.60
2022-08-07T02:59:06.019Z,3.80
2022-08-07T03:01:40.178Z,4.97
2022-08-07T03:04:15.324Z,4.67
2022-08-07T03:06:48.336Z,6.27
2022-08-07T03:09:44.625Z,5.03
2022-08-07T03:12:22.006Z,4.83
2022-08-07T03:14:57.340Z,4.50
2022-08-07T03:17:52.729Z,4.27
2022-08-07T03:20:41.621Z,4.40
2022-08-07T03:23:18.973Z,3.57
2022-08-07T03:25:50.843Z,4.80
2022-08-07T03:28:37.411Z,4.17
2022-08-07T03:31:24.410Z,4.27
2022-08-07T03:34:00.742Z,5.73
2022-08-07T03:36:34.125Z,4.37
2022-08-07T03:39:06.391Z,3.17
2022-08-07T03:41:42.288Z,3.40
2022-08-07T03:44:31.777Z,3.80
2022-08-07T03:47:13.029Z,3.53
2022-08-07T03:49:52.157Z,7.13
2022-08-07T03:52:28.682Z,4.57
2022-08-07T03:55:07.727Z,3.03
2022-08-07T03:58:33.157Z,3.25
2022-08-07T04:00:37.069Z,4.93
2022-08-07T04:03:09.981Z,5.68
2022-08-07T04:05:45.608Z,3.13
2022-08-07T04:08:21.439Z,6.88
2022-08-07T04:10:54.649Z,3.25
2022-08-07T04:14:10.775Z,4.95
2022-08-07T04:16:37.993Z,3.88
2022-08-07T04:19:15.069Z,3.13
2022-08-07T04:22:05.348Z,5.40
2022-08-07T04:24:41.541Z,3.70
2022-08-07T04:27:20.240Z,3.80
2022-08-07T04:30:01.229Z,3.85
2022-08-07T04:32:44.652Z,3.72
2022-08-07T04:35:18.892Z,5.13
2022-08-07T04:38:02.912Z,4.03
2022-08-07T04:40:36.088Z,2.50
2022-08-07T04:44:09.887Z,3.15
2022-08-07T04:46:29.448Z,3.47
2022-08-07T04:49:24.351Z,4.22
2022-08-07T04:52:06.846Z,3.60
2022-08-07T04:54:50.691Z,3.00
2022-08-07T04:58:12.004Z,3.42
2022-08-07T05:00:30.479Z,3.25
2022-08-07T05:03:17.283Z,3.70
2022-08-07T05:06:19.739Z,3.45
2022-08-07T05:09:02.164Z,2.67
2022-08-07T05:11:58.932Z,5.75
2022-08-07T05:14:53.406Z,4.07
2022-08-07T05:17:51.548Z,2.42
2022-08-07T05:20:24.965Z,3.72
2022-08-07T05:23:02.008Z,2.75
2022-08-07T05:25:36.742Z,2.92
2022-08-07T05:28:26.952Z,3.25
2022-08-07T05:31:18.907Z,3.80
2022-08-07T05:34:01.162Z,3.72
2022-08-07T05:36:36.084Z,5.15
2022-08-07T05:40:13.455Z,3.67
2022-08-07T05:42:12.438Z,3.78
2022-08-07T05:44:52.902Z,3.22
2022-08-07T05:47:38.285Z,3.30
2022-08-07T05:50:25.214Z,2.92
2022-08-07T05:52:57.097Z,1.98
2022-08-07T05:56:03.720Z,3.38
2022-08-07T05:58:18.666Z,2.97
2022-08-07T06:01:10.789Z,2.70
2022-08-07T06:03:58.954Z,4.38
2022-08-07T06:06:38.300Z,4.75
2022-08-07T06:09:17.075Z,3.05
2022-08-07T06:11:49.502Z,1.90
2022-08-07T06:14:28.904Z,4.20
2022-08-07T06:17:07.112Z,2.58
2022-08-07T06:19:52.253Z,2.88
2022-08-07T06:22:38.349Z,1.63
2022-08-07T06:25:21.996Z,2.95
2022-08-07T06:28:01.127Z,2.67
2022-08-07T06:30:37.327Z,3.13
2022-08-07T06:33:16.670Z,1.88
2022-08-07T06:36:11.725Z,1.70
2022-08-07T06:38:58.634Z,2.30
2022-08-07T06:41:58.794Z,1.95
2022-08-07T06:44:45.609Z,2.42
2022-08-07T06:47:22.212Z,2.85
2022-08-07T06:49:58.729Z,2.13
2022-08-07T06:52:39.365Z,4.50
2022-08-07T06:55:32.148Z,2.95
2022-08-07T06:58:12.501Z,1.90
2022-08-07T07:00:52.758Z,3.80
2022-08-07T07:03:26.489Z,2.60
2022-08-07T07:06:14.182Z,6.20
2022-08-07T07:08:53.204Z,3.58
2022-08-07T07:12:07.484Z,2.92
2022-08-07T07:14:15.807Z,2.83
2022-08-07T07:16:51.204Z,4.35
2022-08-07T07:19:55.612Z,2.22
2022-08-07T07:22:37.024Z,4.18
2022-08-07T07:26:31.184Z,2.40
2022-08-07T07:28:07.732Z,3.47
2022-08-07T07:31:01.229Z,1.75
2022-08-07T07:33:31.943Z,2.75
2022-08-07T07:36:13.448Z,3.15
2022-08-07T07:38:47.730Z,2.25
2022-08-07T07:41:19.413Z,2.20
2022-08-07T07:44:17.028Z,2.15
2022-08-07T07:46:55.309Z,2.58
2022-08-07T07:50:36.409Z,3.40
2022-08-07T07:52:24.727Z,4.60
2022-08-07T07:54:55.812Z,3.28
2022-08-07T07:57:43.955Z,2.63
2022-08-07T08:00:29.971Z,2.58
2022-08-07T08:03:08.694Z,2.70
2022-08-07T08:05:54.912Z,1.52
2022-08-07T08:08:36.953Z,3.40
2022-08-07T08:11:16.073Z,1.98
2022-08-07T08:13:53.741Z,1.83
2022-08-07T08:16:32.651Z,1.77
2022-08-07T08:19:18.187Z,2.85
2022-08-07T08:22:16.946Z,3.42
2022-08-07T08:25:24.959Z,2.08
2022-08-07T08:28:03.737Z,2.42
2022-08-07T08:30:35.110Z,2.65
2022-08-07T08:33:17.134Z,1.92
2022-08-07T08:35:49.953Z,2.00
2022-08-07T08:38:26.032Z,3.10
2022-08-07T08:41:09.273Z,3.67
2022-08-07T08:43:56.205Z,3.50
2022-08-07T08:46:40.845Z,2.35
2022-08-07T08:49:32.821Z,1.85
2022-08-07T08:52:13.802Z,3.42
2022-08-07T08:54:51.580Z,1.65
2022-08-07T08:57:34.171Z,2.88
2022-08-07T09:00:06.516Z,1.55
2022-08-07T09:02:49.645Z,1.73
2022-08-07T09:05:32.009Z,2.55
2022-08-07T09:08:24.144Z,1.75
2022-08-07T09:11:06.054Z,2.05
2022-08-07T09:13:49.390Z,2.00
2022-08-07T09:16:29.821Z,2.33
2022-08-07T09:19:53.503Z,2.35
2022-08-07T09:24:33.303Z,3.75
2022-08-07T09:25:17.895Z,3.42
2022-08-07T09:28:00.922Z,2.53
2022-08-07T09:30:49.692Z,1.42
2022-08-07T09:33:40.954Z,4.88
2022-08-07T09:36:35.302Z,2.60
2022-08-07T09:39:53.801Z,2.50
2022-08-07T09:42:33.395Z,1.90
2022-08-07T09:47:42.286Z,2.78
2022-08-07T09:48:29.996Z,1.58
2022-08-07T09:51:14.712Z,1.77
2022-08-07T09:54:05.423Z,1.45
2022-08-07T09:57:03.328Z,1.30
2022-08-07T10:00:04.887Z,1.83
2022-08-07T10:03:08.287Z,1.60
2022-08-07T10:06:24.444Z,2.25
2022-08-07T10:09:58.992Z,2.63
2022-08-07T10:12:53.107Z,2.08
2022-08-07T10:15:44.376Z,2.63
2022-08-07T10:18:37.959Z,1.52
2022-08-07T10:22:14.033Z,1.40
2022-08-07T10:24:41.077Z,2.42
2022-08-07T10:27:46.469Z,5.20
2022-08-07T10:30:20.250Z,1.35
2022-08-07T10:33:23.657Z,1.65
2022-08-07T10:36:29.239Z,1.98
2022-08-07T10:39:05.436Z,3.08
2022-08-07T10:41:46.406Z,2.22
2022-08-07T10:44:38.440Z,2.00
2022-08-07T10:47:26.586Z,2.47
2022-08-07T10:50:09.837Z,1.83
2022-08-07T10:52:51.871Z,1.55
2022-08-07T10:55:37.877Z,1.63
2022-08-07T10:58:33.000Z,2.25
2022-08-07T11:01:26.060Z,2.35
2022-08-07T11:04:31.513Z,1.77
2022-08-07T11:07:15.066Z,2.45
2022-08-07T11:10:09.400Z,1.80
2022-08-07T11:12:49.295Z,2.05
2022-08-07T11:15:34.584Z,1.38
2022-08-07T11:18:12.585Z,3.13
2022-08-07T11:20:49.864Z,1.52
2022-08-07T11:23:36.515Z,1.48
2022-08-07T11:26:14.995Z,3.55
2022-08-07T11:28:53.465Z,2.30
2022-08-07T11:31:35.030Z,1.75
2022-08-07T11:34:16.299Z,1.80
2022-08-07T11:37:06.862Z,3.63
2022-08-07T11:40:03.600Z,1.35
2022-08-07T11:42:47.581Z,1.75
2022-08-07T11:45:35.550Z,0.95
2022-08-07T11:48:29.779Z,1.13
2022-08-07T11:51:40.790Z,1.17
2022-08-07T11:54:25.233Z,2.53
2022-08-07T11:57:12.639Z,1.52
2022-08-07T12:00:19.104Z,3.58
2022-08-07T12:03:44.424Z,1.20
2022-08-07T12:06:37.403Z,1.55
2022-08-07T12:09:16.539Z,1.42
2022-08-07T12:12:09.958Z,2.33
2022-08-07T12:14:51.508Z,1.40
2022-08-07T12:17:35.864Z,1.10
2022-08-07T12:20:29.766Z,1.83
2022-08-07T12:24:05.273Z,2.20
2022-08-07T12:26:29.831Z,1.10
2022-08-07T12:29:09.116Z,1.30
2022-08-07T12:31:53.150Z,3.53
2022-08-07T12:34:34.883Z,1.23
2022-08-07T12:37:08.648Z,1.65
2022-08-07T12:39:50.581Z,1.67
2022-08-07T12:42:27.286Z,5.65
2022-08-07T12:45:00.150Z,1.80
2022-08-07T12:47:44.040Z,1.85
2022-08-07T12:50:38.697Z,1.40
2022-08-07T12:53:18.219Z,2.35
2022-08-07T12:56:03.010Z,3.00
2022-08-07T12:58:39.991Z,3.10
2022-08-07T13:01:28.080Z,1.20
2022-08-07T13:04:34.548Z,3.88
2022-08-07T13:07:17.951Z,1.63
2022-08-07T13:10:39.903Z,2.42
2022-08-07T13:13:48.182Z,1.77
2022-08-07T13:16:28.626Z,1.80
2022-08-07T13:19:11.368Z,2.60
2022-08-07T13:22:03.138Z,1.75
2022-08-07T13:24:52.487Z,2.17
2022-08-07T13:28:05.475Z,3.53
2022-08-07T13:30:39.965Z,1.27
2022-08-07T13:34:34.221Z,3.10
2022-08-07T13:36:17.839Z,2.03
2022-08-07T13:39:02.434Z,1.55
2022-08-07T13:41:41.946Z,1.15
2022-08-07T13:44:14.295Z,2.60
2022-08-07T13:46:49.404Z,1.83
2022-08-07T13:50:34.721Z,2.45
2022-08-07T13:52:32.507Z,2.22
2022-08-07T13:55:02.200Z,1.27
2022-08-07T13:57:38.588Z,2.55
2022-08-07T14:00:30.840Z,2.00
2022-08-07T14:03:02.592Z,1.52
2022-08-07T14:05:37.935Z,3.58
2022-08-07T14:08:09.477Z,1.88
2022-08-07T14:10:43.598Z,2.78
2022-08-07T14:13:18.101Z,1.20
2022-08-07T14:15:56.823Z,1.73
2022-08-07T14:18:33.020Z,2.30
2022-08-07T14:21:21.081Z,1.80
2022-08-07T14:24:01.981Z,1.90
2022-08-07T14:26:38.031Z,1.83
2022-08-07T14:30:06.257Z,1.20
2022-08-07T14:32:08.441Z,1.27
2022-08-07T14:34:46.280Z,1.20
2022-08-07T14:37:39.271Z,1.63
2022-08-07T14:40:26.472Z,1.30
2022-08-07T14:43:55.731Z,2.13
2022-08-07T14:45:54.690Z,1.90
2022-08-07T14:48:33.233Z,2.28
2022-08-07T14:51:15.799Z,1.75
2022-08-07T14:54:03.528Z,2.10
2022-08-07T14:56:40.596Z,3.53
2022-08-07T15:00:02.629Z,1.27
2022-08-07T15:05:19.853Z,1.63
2022-08-07T15:07:51.974Z,2.17
2022-08-07T15:13:22.668Z,1.70
2022-08-07T15:16:01.408Z,1.75
2022-08-07T15:18:36.330Z,1.42
2022-08-07T15:21:44.139Z,2.55
2022-08-07T15:25:13.619Z,1.42
2022-08-07T15:27:08.608Z,2.45
2022-08-07T15:30:04.433Z,1.23
2022-08-07T15:32:40.129Z,1.50
2022-08-07T15:38:29.816Z,1.85
2022-08-07T15:41:23.605Z,1.65
2022-08-07T15:44:02.623Z,1.30
2022-08-07T15:46:38.442Z,1.50
2022-08-07T15:49:15.220Z,2.05
2022-08-07T15:54:39.724Z,1.73
2022-08-07T15:57:28.358Z,3.13
2022-08-07T16:00:07.090Z,1.95
2022-08-07T16:02:46.743Z,5.03
2022-08-07T16:05:20.032Z,1.73
2022-08-07T16:08:33.089Z,2.17
2022-08-07T16:10:48.487Z,3.35
2022-08-07T16:14:00.008Z,6.45
2022-08-07T16:16:48.583Z,3.75
2022-08-07T16:19:59.559Z,3.20
2022-08-07T16:22:55.742Z,2.17
2022-08-07T16:25:57.250Z,1.50
2022-08-07T16:30:06.723Z,1.33
2022-08-07T16:31:57.048Z,1.30
2022-08-07T16:34:48.666Z,2.30
2022-08-07T16:38:07.443Z,2.25
2022-08-07T16:41:02.139Z,2.78
2022-08-07T16:44:04.148Z,1.77
2022-08-07T16:47:45.408Z,1.65
2022-08-07T16:50:37.005Z,2.83
2022-08-07T16:54:01.674Z,2.20
2022-08-07T16:56:37.641Z,1.58
2022-08-07T16:59:17.616Z,2.25
2022-08-07T17:01:59.782Z,1.88
2022-08-07T17:04:57.642Z,4.50
2022-08-07T17:07:51.487Z,3.15
2022-08-07T17:10:33.724Z,6.40
2022-08-07T17:14:17.496Z,3.00
2022-08-07T17:16:34.986Z,2.25
2022-08-07T17:19:15.739Z,3.55
2022-08-07T17:21:51.465Z,1.77
2022-08-07T17:24:47.346Z,3.08
2022-08-07T17:27:32.460Z,7.65
2022-08-07T17:30:14.386Z,2.95
2022-08-07T17:34:09.696Z,3.00
2022-08-07T17:36:04.170Z,3.10
2022-08-07T17:38:52.747Z,3.00
2022-08-07T17:42:02.740Z,3.47
2022-08-07T17:44:42.814Z,3.13
2022-08-07T17:47:38.321Z,1.55
2022-08-07T17:50:19.078Z,3.97
2022-08-07T17:52:59.739Z,2.22
2022-08-07T17:56:01.248Z,2.28
2022-08-07T17:58:33.302Z,3.00
2022-08-07T18:01:21.469Z,1.98
2022-08-07T18:04:34.661Z,2.90
2022-08-07T18:07:24.323Z,3.20
2022-08-07T18:10:05.643Z,3.05
2022-08-07T18:12:53.233Z,3.00
2022-08-07T18:15:32.966Z,2.53
2022-08-07T18:18:36.686Z,2.60
2022-08-07T18:21:38.232Z,2.67
2022-08-07T18:24:07.388Z,2.25
2022-08-07T18:27:22.278Z,2.17
2022-08-07T18:30:05.886Z,2.67
2022-08-07T18:33:15.081Z,2.83
2022-08-07T18:35:57.494Z,4.28
2022-08-07T18:38:58.181Z,2.58
2022-08-07T18:41:45.151Z,6.85
2022-08-07T18:44:30.555Z,6.05
2022-08-07T18:47:10.216Z,4.63
2022-08-07T18:50:40.818Z,4.47
2022-08-07T18:53:36.559Z,4.38
2022-08-07T18:56:18.175Z,4.75
2022-08-07T18:59:01.196Z,4.93
2022-08-07T19:02:32.725Z,3.03
2022-08-07T19:04:57.764Z,2.60
2022-08-07T19:07:51.758Z,3.70
2022-08-07T19:10:32.015Z,2.50
2022-08-07T19:13:26.106Z,3.60
2022-08-07T19:17:01.361Z,2.67
2022-08-07T19:19:02.065Z,3.42
2022-08-07T19:21:47.411Z,1.85
2022-08-07T19:24:32.173Z,2.53
2022-08-07T19:28:56.430Z,1.98
2022-08-07T19:31:00.911Z,3.78
2022-08-07T19:32:59.189Z,2.90
2022-08-07T19:35:33.753Z,2.20
2022-08-07T19:38:05.705Z,6.70
2022-08-07T19:40:49.981Z,2.03
2022-08-07T19:43:43.693Z,4.90
2022-08-07T19:46:18.989Z,3.92
2022-08-07T19:48:54.598Z,4.68
2022-08-07T19:51:52.517Z,2.55
2022-08-07T19:54:34.867Z,2.60
2022-08-07T19:58:02.614Z,4.18
2022-08-07T20:00:10.083Z,3.08
2022-08-07T20:02:52.130Z,2.25
2022-08-07T20:05:27.809Z,2.33
2022-08-07T20:08:01.954Z,3.25
2022-08-07T20:10:51.607Z,2.28
2022-08-07T20:13:34.648Z,2.38
2022-08-07T20:16:07.976Z,5.80
2022-08-07T20:18:54.647Z,2.05
2022-08-07T20:21:29.092Z,2.45
2022-08-07T20:24:23.509Z,2.35
2022-08-07T20:26:56.790Z,3.80
2022-08-07T20:29:49.072Z,4.15
2022-08-07T20:32:25.664Z,4.00
2022-08-07T20:35:00.160Z,2.20
2022-08-07T20:37:33.894Z,2.92
2022-08-07T20:40:32.120Z,2.25
2022-08-07T20:42:59.871Z,2.50
2022-08-07T20:46:26.820Z,2.45
2022-08-07T20:48:29.993Z,4.97
2022-08-07T20:51:02.064Z,5.15
2022-08-07T20:54:03.693Z,2.42
2022-08-07T20:56:28.379Z,2.88
2022-08-07T20:59:02.707Z,3.80
2022-08-07T21:01:46.052Z,3.83
2022-08-07T21:04:29.998Z,3.78
2022-08-07T21:07:03.943Z,3.58
2022-08-07T21:09:53.093Z,2.90
2022-08-07T21:12:33.276Z,3.85
2022-08-07T21:15:08.501Z,3.80
2022-08-07T21:18:20.640Z,3.13
2022-08-07T21:20:33.366Z,2.67
2022-08-07T21:23:09.433Z,3.75
2022-08-07T21:25:52.249Z,2.53
2022-08-07T21:28:49.556Z,3.53
2022-08-07T21:32:10.974Z,3.40
2022-08-07T21:34:48.203Z,3.00
2022-08-07T21:37:23.206Z,3.42
2022-08-07T21:39:59.343Z,2.88
2022-08-07T21:42:46.506Z,3.78
2022-08-07T21:46:03.449Z,4.03
2022-08-07T21:48:29.199Z,2.78
2022-08-07T21:51:20.065Z,3.03
2022-08-07T21:53:56.506Z,4.75
2022-08-07T21:56:47.917Z,6.07
2022-08-07T21:59:36.452Z,7.63
2022-08-07T22:02:29.340Z,10.07
2022-08-07T22:05:02.932Z,9.70
2022-08-07T22:07:58.024Z,10.35
2022-08-07T22:10:32.865Z,11.48
2022-08-07T22:13:09.238Z,11.50
2022-08-07T22:16:40.007Z,11.73
2022-08-07T22:18:40.937Z,10.13
2022-08-07T22:21:19.272Z,10.38
2022-08-07T22:23:54.213Z,9.95
2022-08-07T22:26:30.013Z,10.25
2022-08-07T22:29:13.712Z,11.75
2022-08-07T22:32:00.077Z,8.35
2022-08-07T22:34:41.999Z,9.10
2022-08-07T22:38:02.777Z,9.30
2022-08-07T22:40:29.848Z,9.18
2022-08-07T22:43:04.230Z,8.25
2022-08-07T22:46:21.503Z,9.98
2022-08-07T22:48:55.630Z,9.32
2022-08-07T22:52:00.677Z,10.43
2022-08-07T22:55:17.409Z,10.77
2022-08-07T22:58:06.055Z,11.90
2022-08-07T23:00:43.848Z,12.73
2022-08-07T23:03:58.111Z,13.10
2022-08-07T23:06:59.548Z,12.05
2022-08-07T23:10:06.080Z,13.10
2022-08-07T23:12:43.269Z,8.90
2022-08-07T23:16:04.634Z,10.27
2022-08-07T23:18:23.900Z,10.45
2022-08-07T23:21:29.851Z,10.13
2022-08-07T23:24:45.783Z,10.60
2022-08-07T23:28:20.107Z,8.77
2022-08-07T23:30:43.252Z,6.28
2022-08-07T23:34:23.050Z,11.68
2022-08-07T23:36:37.903Z,8.10
2022-08-07T23:39:14.169Z,7.73
2022-08-07T23:42:04.247Z,9.82
2022-08-07T23:45:04.827Z,6.43
2022-08-07T23:47:51.809Z,8.73
2022-08-07T23:50:46.518Z,8.40
2022-08-07T23:53:51.515Z,8.10
2022-08-07T23:56:23.269Z,8.73
2022-08-07T23:59:10.951Z,7.72
